EHVL  Vlieland Heliport

Add Bookmark

Vlieland, The Netherlands

Status
Operational
Latitude Longitude
53° 17' 47" N 5° 5' 8" E
53.296665 5.085833
Local (DST + 2) UTC (GMT + 1)
Jul 23, 2014 09:39 Jul 23, 2014 07:39
Sunrise-Sunset Local UTC
Begin Civil Twilight 04:54 02:54
Sunrise 05:40 03:40
Sunset 09:51 19:51
End Civil Twilight 10:37 20:37

Current Weather

METAR Observed VFR
EHVL 230725Z AUTO 08016KT 9999 NCD 23/17 Q1021 BLU Wed, Jul 23, 2014 @ 07:25 UTC
(14 Minutes ago)
Visual Flight Rules

Decoded METAR

Wind Visibility Clouds Conditions
080° at 16 knots (30 kph) 10 km or more
  • Clear skies
  • No significant weather
Temperatures Readings Precipitation
Current Temp 23°C (73°F)
Dewpoint 17°C (63°F)
Humidity 69%
Altimeter 30.15"Hg
Sea Level Pressure 1021mb
Field Elevation 16.4'
None Recorded

Additional weather within a 92.6km radius of EHVL

Map ICAO Location METAR
EHLW 45.6km E (099°) 14 mins ago
EHKD 46.1km S (206°) 14 mins ago

24 Hour Weather History

Loading
-

24 Hour Weather Graphs

Loading
-

CheckWX.com is intended as a tool to help pilots better visualize weather data. It is not intended as a substitute for an official weather briefing obtained from a Flight Service Station. CheckWX.com does not meet the FAA requirements for an official pre-flight weather briefing. Therefore, it's important that pilots still call and obtain an official FSS pre-flight weather briefing.